Terminal Aerodrome Forecast
Issued by NWS

Current Version | Previous Version | Text Only | Print | Product List | Glossary Off
Versions: 1 2 3 4 5 6 7 8 9 10 11 12 13 14 15 16 17 18 19 20 21 22 23 24

000
FTUS41 KILN 241700
TAFLUK
TAF
KLUK 241732Z 2418/2518 05008KT P6SM -SHRA OVC130
     FM241900 07007KT P6SM -SHRA OVC070
     FM242200 09006KT P6SM VCSH OVC060
     FM250200 10004KT P6SM BKN060
     FM250900 18012G20KT 4SM -SHRA OVC035
     FM251500 23013G23KT P6SM SCT035 SCT250=

USA.gov is the U.S. government's official web portal to all federal, state and local government web resources and services.